Time;durP1;ratioP1;P1;durP2;ratioP2;P2;SDS_P1;SDS_P2;PMS_P1;PMS_P2;Temp;Humidity;BMP_temperature;BMP_pressure;BME280_temperature;BME280_humidity;BME280_pressure;Samples;Min_cycle;Max_cycle;Signal;HPM_P1;HPM_P2
2022/01/02 15:59:15;;;;;;;5.00;4.10;;;;;;;11.81;100.00;99584.75;5107171;27;20571;-74
2022/01/02 16:01:42;;;;;;;8.13;4.45;;;;;;;12.00;100.00;99594.41;5109792;28;20222;-73
2022/01/02 16:04:09;;;;;;;11.20;5.18;;;;;;;12.08;100.00;99598.34;5107805;28;20199;-73
2022/01/02 16:06:35;;;;;;;9.63;4.50;;;;;;;12.05;100.00;99598.56;5110303;28;20214;-74
2022/01/02 16:09:03;;;;;;;8.45;4.05;;;;;;;12.20;100.00;99582.34;5111017;28;20258;-74
2022/01/02 16:11:30;;;;;;;13.80;4.28;;;;;;;12.16;100.00;99584.34;5110384;28;20614;-74
2022/01/02 16:13:56;;;;;;;4.85;3.88;;;;;;;12.26;100.00;99585.50;5108655;28;20206;-74
2022/01/02 16:16:24;;;;;;;5.25;3.80;;;;;;;12.25;100.00;99597.25;5110187;28;20282;-74
2022/01/02 16:18:51;;;;;;;6.60;3.78;;;;;;;12.33;100.00;99590.50;5110569;28;21094;-74
2022/01/02 16:21:18;;;;;;;7.05;4.32;;;;;;;12.36;100.00;99580.34;5110050;28;20298;-74
2022/01/02 16:23:44;;;;;;;13.57;3.90;;;;;;;12.27;100.00;99580.97;5111065;28;20690;-74
2022/01/02 16:26:11;;;;;;;7.82;3.88;;;;;;;12.28;100.00;99583.56;5110695;28;20641;-74
2022/01/02 16:28:38;;;;;;;11.80;3.65;;;;;;;12.22;100.00;99575.84;5107639;28;20234;-73
2022/01/02 16:31:06;;;;;;;5.97;4.00;;;;;;;12.26;100.00;99588.19;5110048;28;20629;-75
2022/01/02 16:33:34;;;;;;;8.55;4.07;;;;;;;12.30;100.00;99583.44;5110493;28;20621;-74
2022/01/02 16:36:01;;;;;;;5.20;3.80;;;;;;;12.38;100.00;99555.97;5110405;28;20641;-74
2022/01/02 16:38:27;;;;;;;5.63;3.45;;;;;;;12.35;100.00;99561.56;5110118;28;20224;-74
2022/01/02 16:40:54;;;;;;;7.80;4.47;;;;;;;12.35;100.00;99550.78;5110194;28;20194;-74
2022/01/02 16:43:21;;;;;;;8.68;3.95;;;;;;;12.36;100.00;99558.75;5110461;28;20658;-74
2022/01/02 16:45:48;;;;;;;6.43;3.85;;;;;;;12.27;100.00;99571.03;5110507;28;20191;-74
2022/01/02 16:48:15;;;;;;;7.38;4.90;;;;;;;12.24;100.00;99565.81;5110383;28;20212;-74
2022/01/02 16:50:44;;;;;;;7.05;4.10;;;;;;;12.22;100.00;99566.91;5109482;28;20284;-74
2022/01/02 16:53:11;;;;;;;8.00;4.47;;;;;;;12.23;100.00;99563.22;5110326;28;20215;-74
2022/01/02 16:55:38;;;;;;;9.27;4.50;;;;;;;12.18;100.00;99560.81;5109740;28;20190;-74
2022/01/02 16:58:05;;;;;;;6.65;4.13;;;;;;;12.11;100.00;99567.59;5109658;28;20232;-74
2022/01/02 17:00:33;;;;;;;13.35;5.57;;;;;;;12.18;100.00;99570.75;5109246;28;20196;-74
2022/01/02 17:03:02;;;;;;;10.90;4.70;;;;;;;12.07;100.00;99572.34;5109432;28;20236;-74
2022/01/02 17:05:30;;;;;;;6.18;4.43;;;;;;;12.08;100.00;99578.59;5109623;28;20561;-75
2022/01/02 17:07:59;;;;;;;6.38;3.92;;;;;;;12.03;100.00;99570.81;5109767;28;20554;-74
2022/01/02 17:10:26;;;;;;;6.03;3.80;;;;;;;12.10;100.00;99564.03;5096721;28;20276;-74
2022/01/02 17:12:53;;;;;;;6.07;4.28;;;;;;;12.05;100.00;99565.28;5095898;28;20197;-73
2022/01/02 17:15:22;;;;;;;9.13;4.40;;;;;;;12.08;100.00;99565.09;5096236;28;20629;-73
2022/01/02 17:17:49;;;;;;;6.03;4.50;;;;;;;12.08;100.00;99571.38;5095967;28;20621;-74
2022/01/02 17:20:17;;;;;;;6.28;4.35;;;;;;;12.15;100.00;99552.94;5095297;28;20188;-74
2022/01/02 17:22:44;;;;;;;10.48;5.50;;;;;;;11.99;100.00;99547.69;5096117;28;20552;-74
2022/01/02 17:25:13;;;;;;;12.73;4.80;;;;;;;11.99;100.00;99554.91;5095773;28;20268;-73
2022/01/02 17:27:41;;;;;;;5.50;4.80;;;;;;;12.03;100.00;99542.94;5095515;28;20199;-74
2022/01/02 17:30:11;;;;;;;7.32;4.60;;;;;;;12.01;100.00;99543.03;5095336;28;20204;-73
2022/01/02 17:32:38;;;;;;;6.38;5.30;;;;;;;12.06;100.00;99542.75;5094700;28;20294;-72
2022/01/02 17:35:07;;;;;;;6.40;4.57;;;;;;;11.88;100.00;99547.50;5075435;28;20203;-73
2022/01/02 17:37:34;;;;;;;8.05;5.68;;;;;;;12.01;100.00;99564.63;5079820;28;20192;-74
2022/01/02 17:40:00;;;;;;;11.75;6.05;;;;;;;12.09;100.00;99556.03;5095273;28;20205;-73
2022/01/02 17:42:28;;;;;;;13.98;8.05;;;;;;;12.12;100.00;99555.84;5095497;28;20200;-74
2022/01/02 17:44:55;;;;;;;8.25;6.38;;;;;;;12.21;100.00;99562.44;5084576;28;20288;-74
2022/01/02 17:47:22;;;;;;;9.02;6.30;;;;;;;12.08;100.00;99562.41;5093749;28;20276;-74
2022/01/02 17:49:49;;;;;;;9.25;6.30;;;;;;;12.07;100.00;99555.25;5095174;28;20196;-73
2022/01/02 17:52:15;;;;;;;9.52;6.65;;;;;;;12.02;100.00;99550.16;5095400;28;20592;-73
2022/01/02 17:54:42;;;;;;;8.38;6.07;;;;;;;11.98;100.00;99545.06;5095177;28;20177;-75
2022/01/02 17:57:09;;;;;;;11.35;7.93;;;;;;;11.95;100.00;99542.56;5095452;28;20573;-75
2022/01/02 17:59:37;;;;;;;7.85;6.65;;;;;;;11.91;100.00;99536.50;5095175;28;20542;-73
2022/01/02 18:02:04;;;;;;;8.13;6.55;;;;;;;11.92;100.00;99535.56;5095339;28;20275;-73
2022/01/02 18:04:31;;;;;;;11.30;7.05;;;;;;;11.80;100.00;99544.38;5095329;28;20288;-74
2022/01/02 18:06:58;;;;;;;12.32;7.35;;;;;;;11.83;100.00;99555.00;5094821;28;20193;-75
2022/01/02 18:09:28;;;;;;;10.18;7.30;;;;;;;11.88;100.00;99563.69;5095123;28;20189;-75
2022/01/02 18:11:55;;;;;;;7.88;7.07;;;;;;;11.85;100.00;99574.66;5095256;28;20278;-75
2022/01/02 18:14:21;;;;;;;10.10;7.05;;;;;;;11.69;100.00;99572.94;5094810;28;20195;-74
2022/01/02 18:16:50;;;;;;;9.70;7.45;;;;;;;11.81;100.00;99565.88;5093988;28;20196;-74
2022/01/02 18:19:17;;;;;;;13.20;8.25;;;;;;;11.83;100.00;99569.34;5088963;28;20212;-74
2022/01/02 18:21:47;;;;;;;10.90;8.70;;;;;;;11.88;100.00;99566.38;5093891;28;20751;-74
2022/01/02 18:24:17;;;;;;;11.45;7.70;;;;;;;11.88;100.00;99569.94;5093986;28;20189;-74
2022/01/02 18:26:45;;;;;;;12.95;8.27;;;;;;;11.84;100.00;99568.38;5095047;28;20618;-74
2022/01/02 18:29:12;;;;;;;10.80;7.95;;;;;;;11.80;100.00;99557.88;5094630;28;20300;-74
2022/01/02 18:31:39;;;;;;;11.98;7.80;;;;;;;11.89;100.00;99555.50;5094764;28;20212;-74
2022/01/02 18:34:08;;;;;;;9.90;7.53;;;;;;;11.83;100.00;99550.47;5093959;28;20188;-73
2022/01/02 18:36:35;;;;;;;8.63;6.60;;;;;;;11.85;100.00;99550.38;5094707;28;20271;-74
2022/01/02 18:39:02;;;;;;;12.27;8.35;;;;;;;11.86;100.00;99552.09;5094282;28;20312;-73
2022/01/02 18:41:29;;;;;;;9.90;8.10;;;;;;;11.73;100.00;99564.63;5094515;28;20232;-74
2022/01/02 18:43:55;;;;;;;8.65;7.18;;;;;;;11.73;100.00;99554.69;5092798;28;20220;-74
2022/01/02 18:46:22;;;;;;;10.65;7.75;;;;;;;11.73;100.00;99568.19;5094433;28;20224;-73
2022/01/02 18:48:49;;;;;;;9.90;8.85;;;;;;;11.75;100.00;99562.69;5094236;28;20692;-73
2022/01/02 18:51:17;;;;;;;10.93;7.50;;;;;;;11.65;100.00;99546.25;5094249;28;20201;-73
2022/01/02 18:53:44;;;;;;;10.48;8.40;;;;;;;11.80;100.00;99561.47;5093997;28;20189;-73
2022/01/02 19:32:37;;;;;;;8.88;7.07;;;;;;;11.62;100.00;99519.44;4584273;28;20254;-74
2022/01/02 19:35:04;;;;;;;8.68;6.90;;;;;;;11.67;100.00;99523.59;5089485;28;20201;-74
2022/01/02 19:37:31;;;;;;;8.20;6.57;;;;;;;11.65;100.00;99508.47;5093461;28;20287;-74
2022/01/02 19:39:58;;;;;;;8.85;6.95;;;;;;;11.60;100.00;99515.97;5093229;28;20225;-74
2022/01/02 19:42:24;;;;;;;10.07;8.43;;;;;;;11.72;100.00;99520.59;5093167;28;20187;-74
2022/01/02 19:44:51;;;;;;;8.65;7.18;;;;;;;11.68;100.00;99514.53;5093555;28;20201;-74
2022/01/02 19:47:18;;;;;;;8.93;6.57;;;;;;;11.65;100.00;99520.13;5093403;28;20251;-74
2022/01/02 19:49:47;;;;;;;8.30;6.50;;;;;;;11.55;100.00;99515.41;5092945;28;20196;-76
2022/01/02 19:52:14;;;;;;;11.35;7.22;;;;;;;11.63;100.00;99516.66;5093573;28;20563;-75
2022/01/02 19:54:41;;;;;;;9.10;6.60;;;;;;;11.53;100.00;99501.16;5093656;28;20188;-74
2022/01/02 19:57:08;;;;;;;7.13;6.07;;;;;;;11.63;100.00;99500.47;5093398;28;20544;-74
2022/01/02 19:59:36;;;;;;;9.00;6.70;;;;;;;11.66;100.00;99508.38;5093257;28;20234;-75
2022/01/02 20:02:04;;;;;;;9.30;6.85;;;;;;;11.52;100.00;99504.84;5093201;28;20189;-75
2022/01/02 20:04:31;;;;;;;7.70;6.10;;;;;;;11.60;100.00;99524.06;5092618;28;20185;-76
2022/01/02 20:06:59;;;;;;;8.50;6.50;;;;;;;11.55;100.00;99507.31;5092937;28;20250;-74
2022/01/02 20:09:26;;;;;;;9.05;7.10;;;;;;;11.67;100.00;99518.22;5092167;28;20185;-75
2022/01/02 20:11:53;;;;;;;11.00;7.45;;;;;;;11.60;100.00;99527.66;5092927;28;20197;-74
2022/01/02 20:14:20;;;;;;;7.30;6.05;;;;;;;11.65;100.00;99505.78;5093197;28;20224;-74
2022/01/02 20:16:46;;;;;;;10.65;6.50;;;;;;;11.51;100.00;99495.00;5092953;28;20280;-74
2022/01/02 20:19:13;;;;;;;10.07;6.70;;;;;;;11.53;100.00;99501.16;5075239;28;20245;-74
2022/01/02 20:21:40;;;;;;;9.40;5.70;;;;;;;11.66;100.00;99499.41;5073329;28;20261;-75
2022/01/02 20:24:08;;;;;;;9.23;6.05;;;;;;;11.69;100.00;99504.63;5091076;28;20232;-74
2022/01/02 20:26:34;;;;;;;8.35;6.32;;;;;;;11.65;100.00;99505.78;5093071;28;20212;-74
2022/01/02 20:29:01;;;;;;;9.38;6.72;;;;;;;11.64;100.00;99501.34;5092729;28;20334;-75
2022/01/02 20:31:28;;;;;;;8.30;6.28;;;;;;;11.61;100.00;99497.00;5092868;28;20223;-75
2022/01/02 20:33:54;;;;;;;9.35;6.20;;;;;;;11.67;100.00;99491.25;5109929;28;20302;-75
2022/01/02 20:36:21;;;;;;;6.78;5.65;;;;;;;11.59;100.00;99476.50;5113144;28;20214;-75
2022/01/02 20:38:48;;;;;;;9.18;5.75;;;;;;;11.69;100.00;99486.63;5112483;28;20319;-75
2022/01/02 20:41:16;;;;;;;9.07;5.60;;;;;;;11.57;100.00;99489.22;5113589;28;20218;-75
2022/01/02 20:43:43;;;;;;;14.55;6.88;;;;;;;11.63;100.00;99488.84;5112811;28;20319;-75
2022/01/02 20:46:09;;;;;;;7.03;5.57;;;;;;;11.65;100.00;99492.31;5117399;28;20622;-75
2022/01/02 20:48:36;;;;;;;8.23;6.15;;;;;;;11.69;100.00;99494.72;5116456;28;20283;-75
2022/01/02 20:51:04;;;;;;;9.80;6.38;;;;;;;11.64;100.00;99498.66;5115150;28;20282;-75
2022/01/02 20:53:33;;;;;;;7.95;5.45;;;;;;;11.61;100.00;99507.81;5115633;28;20184;-75
2022/01/02 20:56:01;;;;;;;8.63;4.32;;;;;;;11.64;100.00;99496.81;5115831;28;20196;-75
2022/01/02 20:58:29;;;;;;;8.25;5.57;;;;;;;11.64;100.00;99491.41;5115998;28;20287;-75
2022/01/02 21:00:57;;;;;;;5.88;4.68;;;;;;;11.59;100.00;99495.38;5116264;28;20196;-75
2022/01/02 21:03:24;;;;;;;5.30;4.80;;;;;;;11.55;100.00;99493.84;5116221;28;20192;-75
2022/01/02 21:05:51;;;;;;;6.85;4.85;;;;;;;11.67;100.00;99487.69;5116493;28;20271;-75
2022/01/02 21:08:19;;;;;;;9.80;6.68;;;;;;;11.66;100.00;99485.94;5116405;28;20279;-75
2022/01/02 21:10:47;;;;;;;7.97;4.93;;;;;;;11.67;100.00;99485.00;5114435;28;20234;-75
2022/01/02 21:13:14;;;;;;;7.13;4.90;;;;;;;11.60;100.00;99491.72;5116605;28;20651;-75
2022/01/02 21:15:43;;;;;;;6.32;4.43;;;;;;;11.59;100.00;99476.50;5114916;28;20195;-74
2022/01/02 21:18:09;;;;;;;6.70;4.35;;;;;;;11.62;100.00;99481.69;5115438;28;20238;-75
2022/01/02 21:20:37;;;;;;;11.02;5.25;;;;;;;11.69;100.00;99478.53;5115354;28;20611;-75
2022/01/02 21:23:04;;;;;;;7.68;4.60;;;;;;;11.75;100.00;99460.19;5115726;28;20727;-75
2022/01/02 21:25:31;;;;;;;9.48;6.07;;;;;;;11.68;100.00;99475.91;5114698;28;20282;-75
2022/01/02 21:27:58;;;;;;;8.50;4.82;;;;;;;11.58;100.00;99477.50;5113679;28;20271;-76
2022/01/02 21:30:26;;;;;;;8.20;4.63;;;;;;;11.65;100.00;99465.34;5114094;28;20475;-75
2022/01/02 21:32:55;;;;;;;6.68;4.63;;;;;;;11.71;100.00;99448.72;5115692;28;20251;-75
2022/01/02 21:35:23;;;;;;;5.30;4.10;;;;;;;11.66;100.00;99450.88;5116359;28;20224;-75
2022/01/02 21:37:52;;;;;;;5.45;3.78;;;;;;;11.75;100.00;99441.31;5115387;28;20260;-75
2022/01/02 21:40:21;;;;;;;7.82;4.18;;;;;;;11.65;100.00;99436.53;5114728;28;20255;-75
2022/01/02 21:42:49;;;;;;;7.40;4.78;;;;;;;11.64;100.00;99452.81;5115873;28;20203;-75
2022/01/02 21:45:17;;;;;;;6.35;4.43;;;;;;;11.62;100.00;99460.13;5115284;28;20222;-75
2022/01/02 21:47:44;;;;;;;9.02;5.07;;;;;;;11.58;100.00;99462.16;5114679;28;20271;-75
2022/01/02 21:50:12;;;;;;;11.02;4.40;;;;;;;11.57;100.00;99448.78;5114503;28;20212;-76
2022/01/02 21:52:39;;;;;;;7.32;4.40;;;;;;;11.48;100.00;99452.94;5115186;28;20774;-74
2022/01/02 21:55:07;;;;;;;8.70;4.20;;;;;;;11.55;100.00;99466.88;5115535;28;20180;-75
2022/01/02 21:57:36;;;;;;;5.72;3.97;;;;;;;11.52;100.00;99470.63;5115875;28;20271;-75
2022/01/02 22:00:03;;;;;;;6.78;3.75;;;;;;;11.55;100.00;99466.88;5113204;28;20208;-75
2022/01/02 22:02:30;;;;;;;9.10;4.20;;;;;;;11.63;100.00;99459.16;5114176;28;20603;-75
2022/01/02 22:04:57;;;;;;;7.20;4.10;;;;;;;11.60;100.00;99460.25;5105216;28;20263;-75
2022/01/02 22:07:27;;;;;;;9.75;4.20;;;;;;;11.67;100.00;99455.31;5114433;28;20191;-75
2022/01/02 22:09:54;;;;;;;10.43;4.00;;;;;;;11.66;100.00;99453.56;5114823;28;20188;-75
2022/01/02 22:12:24;;;;;;;8.00;4.45;;;;;;;11.68;100.00;99465.13;5115361;28;20198;-75
2022/01/02 22:14:50;;;;;;;11.05;4.70;;;;;;;11.66;100.00;99451.72;5115426;28;20226;-75
2022/01/02 22:17:17;;;;;;;8.40;4.40;;;;;;;11.69;100.00;99445.31;5115212;28;20614;-75
2022/01/02 22:19:44;;;;;;;6.43;4.18;;;;;;;11.64;100.00;99447.41;5114761;28;20199;-75
2022/01/02 22:22:12;;;;;;;6.75;3.97;;;;;;;11.63;100.00;99453.78;5115242;28;20290;-75
2022/01/02 22:24:43;;;;;;;11.73;6.05;;;;;;;11.60;100.00;99430.56;5115407;28;20200;-74
2022/01/02 22:27:11;;;;;;;8.85;3.75;;;;;;;11.61;100.00;99444.91;5114805;28;20323;-74
2022/01/02 22:29:43;;;;;;;10.20;4.15;;;;;;;11.62;100.00;99443.94;5115237;28;20198;-76
2022/01/02 22:32:11;;;;;;;6.65;3.45;;;;;;;11.58;100.00;99458.63;5114830;28;20303;-73
2022/01/02 22:34:38;;;;;;;7.53;4.20;;;;;;;11.55;100.00;99461.50;5114795;28;20283;-76
2022/01/02 22:37:05;;;;;;;7.95;3.45;;;;;;;11.52;100.00;99461.69;5114748;28;20202;-73
2022/01/02 22:39:31;;;;;;;8.75;3.60;;;;;;;11.70;100.00;99471.28;5114601;28;20215;-74
2022/01/02 22:41:59;;;;;;;7.30;4.10;;;;;;;11.64;100.00;99474.38;5114532;28;20974;-74
2022/01/02 22:44:26;;;;;;;9.05;3.80;;;;;;;11.64;100.00;99468.97;5114934;28;20712;-74
2022/01/02 22:46:55;;;;;;;11.82;4.07;;;;;;;11.76;100.00;99470.91;5115499;28;20191;-77
2022/01/02 22:49:23;;;;;;;5.97;4.75;;;;;;;11.69;100.00;99483.06;5114760;28;20188;-76
2022/01/02 22:51:54;;;;;;;7.10;3.65;;;;;;;11.78;100.00;99471.66;5114723;28;20213;-76
2022/01/02 22:54:23;;;;;;;5.28;2.83;;;;;;;11.82;100.00;99456.13;5114055;28;20621;-76
2022/01/02 22:56:53;;;;;;;6.80;3.00;;;;;;;11.95;100.00;99467.88;5114940;28;20559;-75
2022/01/02 22:59:24;;;;;;;6.38;2.88;;;;;;;11.84;100.00;99465.84;5114514;28;20678;-75
2022/01/02 23:01:50;;;;;;;6.00;3.17;;;;;;;11.89;100.00;99460.19;5115704;28;20708;-76
2022/01/02 23:04:17;;;;;;;7.32;3.55;;;;;;;11.96;100.00;99468.75;5114023;28;20570;-75
2022/01/02 23:06:44;;;;;;;9.63;2.90;;;;;;;11.85;100.00;99473.00;5113964;28;20200;-75
2022/01/02 23:09:11;;;;;;;6.93;2.85;;;;;;;11.94;100.00;99474.25;5114704;28;20196;-76
2022/01/02 23:11:37;;;;;;;6.28;2.83;;;;;;;11.92;100.00;99475.31;5114579;28;20200;-76
2022/01/02 23:14:04;;;;;;;8.55;3.25;;;;;;;12.00;100.00;99464.88;5114208;28;20188;-78
2022/01/02 23:16:36;;;;;;;10.27;2.47;;;;;;;12.01;100.00;99480.97;5114222;28;20230;-76
2022/01/02 23:19:05;;;;;;;4.90;3.22;;;;;;;12.08;100.00;99473.34;5114396;28;20295;-76
2022/01/02 23:21:34;;;;;;;4.32;2.50;;;;;;;12.07;100.00;99477.00;5114797;28;20246;-77
2022/01/02 23:24:01;;;;;;;4.40;2.00;;;;;;;12.13;100.00;99468.50;5114502;28;20299;-77
2022/01/02 23:26:28;;;;;;;6.65;3.00;;;;;;;12.18;100.00;99474.44;5114520;28;20267;-77
2022/01/02 23:28:55;;;;;;;8.65;2.65;;;;;;;12.12;100.00;99460.50;5114344;28;20200;-77
2022/01/02 23:31:24;;;;;;;4.78;2.33;;;;;;;12.12;100.00;99466.78;5114656;28;20282;-76
2022/01/02 23:33:53;;;;;;;12.88;2.65;;;;;;;12.12;100.00;99466.78;5113182;28;20764;-77
2022/01/02 23:36:21;;;;;;;8.43;2.58;;;;;;;12.18;100.00;99469.06;5115317;28;20728;-76
2022/01/02 23:38:48;;;;;;;9.50;2.63;;;;;;;12.23;100.00;99458.84;5098055;28;20275;-77
2022/01/02 23:41:15;;;;;;;11.15;3.05;;;;;;;12.21;100.00;99466.16;5101985;28;20302;-77
2022/01/02 23:43:42;;;;;;;6.05;2.30;;;;;;;12.23;100.00;99468.75;5114148;28;20568;-77
2022/01/02 23:46:11;;;;;;;7.63;2.72;;;;;;;12.29;100.00;99471.03;5114027;28;20279;-77
2022/01/02 23:48:43;;;;;;;5.85;1.95;;;;;;;12.24;100.00;99468.66;5114371;28;20195;-77
2022/01/02 23:51:14;;;;;;;8.20;3.13;;;;;;;12.27;99.49;99471.13;5114680;28;20625;-77
2022/01/02 23:53:42;;;;;;;10.05;2.35;;;;;;;12.38;98.30;99456.91;5113499;28;20219;-76
2022/01/02 23:56:11;;;;;;;4.93;1.48;;;;;;;12.35;97.69;99456.28;5105839;28;20644;-76
2022/01/02 23:58:40;;;;;;;7.45;1.90;;;;;;;12.31;97.61;99452.91;5114267;28;20208;-76
